Time;durP1;ratioP1;P1;durP2;ratioP2;P2;SDS_P1;SDS_P2;PMS_P1;PMS_P2;Temp;Humidity;BMP_temperature;BMP_pressure;BME280_temperature;BME280_humidity;BME280_pressure;Samples;Min_cycle;Max_cycle;Signal;HPM_P1;HPM_P2
2024/04/02 00:00:32;;;;;;;1.50;1.20;;;9.70;98.20;;;;;;4884666;29;20209;-85
2024/04/02 00:03:00;;;;;;;1.50;1.10;;;9.70;98.20;;;;;;4896398;29;20477;-85
2024/04/02 00:05:25;;;;;;;1.50;1.20;;;9.60;98.20;;;;;;4888391;29;20564;-82
2024/04/02 00:07:52;;;;;;;1.50;1.10;;;9.60;98.20;;;;;;4887760;29;21085;-83
2024/04/02 00:10:18;;;;;;;1.50;1.10;;;9.60;98.20;;;;;;4891130;29;20744;-82
2024/04/02 00:12:45;;;;;;;1.50;1.10;;;9.60;98.20;;;;;;4888979;29;20598;-83
2024/04/02 00:15:13;;;;;;;1.50;1.10;;;9.60;98.20;;;;;;4883909;29;20210;-83
2024/04/02 00:17:40;;;;;;;1.50;1.10;;;9.60;98.20;;;;;;4887925;29;20517;-83
2024/04/02 00:20:06;;;;;;;1.50;1.20;;;9.60;98.20;;;;;;4882028;29;20478;-83
2024/04/02 00:22:33;;;;;;;1.50;1.03;;;9.60;98.20;;;;;;4890844;29;20482;-83
2024/04/02 00:24:59;;;;;;;1.50;1.27;;;9.60;98.20;;;;;;4889250;29;20473;-83
2024/04/02 00:27:27;;;;;;;1.50;1.10;;;9.60;98.20;;;;;;4873088;29;20490;-82
2024/04/02 00:29:53;;;;;;;1.50;1.10;;;9.60;98.20;;;;;;4880170;29;20542;-84
2024/04/02 00:32:22;;;;;;;1.50;1.10;;;9.60;98.20;;;;;;4884685;29;20551;-81
2024/04/02 00:34:48;;;;;;;1.50;1.13;;;9.60;98.20;;;;;;4882731;29;20217;-81
2024/04/02 00:37:15;;;;;;;1.50;1.20;;;9.60;98.20;;;;;;4873748;29;20488;-81
2024/04/02 00:39:43;;;;;;;1.50;1.10;;;9.60;98.20;;;;;;4881504;29;20214;-81
2024/04/02 00:42:10;;;;;;;1.50;1.20;;;9.60;98.20;;;;;;4878606;29;20516;-83
2024/04/02 00:44:36;;;;;;;1.50;1.10;;;9.70;98.20;;;;;;4884691;29;20478;-85
2024/04/02 00:47:04;;;;;;;1.50;1.10;;;9.60;98.20;;;;;;4873916;29;20504;-84
2024/04/02 00:49:32;;;;;;;1.50;1.10;;;9.60;98.20;;;;;;4880976;29;20234;-83
2024/04/02 00:51:59;;;;;;;1.50;1.10;;;9.50;98.20;;;;;;4883923;29;20485;-82
2024/04/02 00:54:25;;;;;;;1.50;1.10;;;9.50;98.20;;;;;;4884032;29;21065;-83
2024/04/02 00:56:52;;;;;;;1.50;1.20;;;9.50;98.20;;;;;;4870947;29;20482;-83
2024/04/02 00:59:18;;;;;;;1.50;1.10;;;9.40;98.20;;;;;;4876087;29;20494;-83
2024/04/02 01:01:46;;;;;;;1.50;1.03;;;9.40;98.20;;;;;;4872689;29;20537;-83
2024/04/02 01:04:12;;;;;;;1.50;1.20;;;9.40;98.20;;;;;;4879371;29;21028;-82
2024/04/02 01:06:40;;;;;;;1.50;1.10;;;9.40;98.20;;;;;;4872546;29;20576;-82
2024/04/02 01:09:06;;;;;;;1.50;1.20;;;9.30;98.20;;;;;;4883560;29;20276;-83
2024/04/02 01:11:34;;;;;;;1.50;1.20;;;9.30;98.20;;;;;;4872218;29;20504;-83
2024/04/02 01:13:59;;;;;;;1.50;1.10;;;9.30;98.20;;;;;;4886573;29;20431;-82
2024/04/02 01:16:26;;;;;;;1.50;1.10;;;9.20;98.20;;;;;;4868806;29;20482;-82
2024/04/02 01:18:52;;;;;;;1.50;1.10;;;9.20;98.20;;;;;;4876299;29;20234;-83
2024/04/02 01:21:20;;;;;;;1.50;1.10;;;9.20;98.20;;;;;;4870448;29;20478;-83
2024/04/02 01:23:47;;;;;;;1.50;1.10;;;9.10;98.20;;;;;;4887301;29;20218;-83
2024/04/02 01:26:16;;;;;;;1.50;1.20;;;9.10;98.20;;;;;;4872959;29;20900;-83
2024/04/02 01:28:41;;;;;;;1.50;1.20;;;9.10;98.20;;;;;;4889708;29;20496;-81
2024/04/02 01:31:08;;;;;;;1.50;1.10;;;9.00;98.20;;;;;;4871345;29;20997;-83
2024/04/02 01:33:34;;;;;;;1.50;1.10;;;9.00;98.20;;;;;;4889085;29;20213;-83
2024/04/02 01:36:01;;;;;;;1.50;1.10;;;9.00;98.20;;;;;;4870535;29;20462;-82
2024/04/02 01:38:27;;;;;;;1.50;1.20;;;8.90;98.20;;;;;;4889922;29;20427;-82
2024/04/02 01:40:54;;;;;;;1.50;1.10;;;8.90;98.20;;;;;;4865824;29;21041;-82
2024/04/02 01:43:21;;;;;;;1.50;1.10;;;8.90;98.20;;;;;;4897377;29;20852;-83
2024/04/02 01:45:48;;;;;;;1.50;1.20;;;8.90;98.20;;;;;;4877220;29;20486;-84
2024/04/02 01:48:14;;;;;;;1.53;1.20;;;9.00;98.20;;;;;;4898715;29;20675;-83
2024/04/02 01:50:40;;;;;;;1.50;1.10;;;9.00;98.20;;;;;;4883105;29;20473;-83
2024/04/02 01:53:06;;;;;;;1.50;1.20;;;9.00;98.20;;;;;;4894609;29;20225;-84
2024/04/02 01:55:33;;;;;;;1.50;1.17;;;9.00;98.20;;;;;;4886037;29;20510;-82
2024/04/02 01:57:59;;;;;;;1.50;1.10;;;9.00;98.20;;;;;;4888048;29;20236;-84
2024/04/02 02:00:27;;;;;;;1.50;1.10;;;9.00;98.20;;;;;;4881418;29;20478;-82
2024/04/02 02:02:52;;;;;;;1.57;1.30;;;9.10;98.20;;;;;;4886709;29;20233;-84
2024/04/02 02:05:19;;;;;;;1.50;1.20;;;9.10;98.20;;;;;;4882493;29;20484;-83
2024/04/02 02:07:45;;;;;;;1.50;1.20;;;9.20;98.20;;;;;;4890492;29;20236;-83
2024/04/02 02:10:13;;;;;;;1.50;1.20;;;9.20;98.20;;;;;;4880269;29;20496;-82
2024/04/02 02:12:39;;;;;;;1.50;1.10;;;9.20;98.20;;;;;;4889678;29;20235;-83
2024/04/02 02:15:06;;;;;;;1.50;1.10;;;9.30;98.20;;;;;;4884692;29;20470;-83
2024/04/02 02:17:33;;;;;;;1.50;1.10;;;9.30;98.20;;;;;;4890050;29;20243;-82
2024/04/02 02:20:00;;;;;;;1.50;1.20;;;9.30;98.20;;;;;;4879800;29;21053;-82
2024/04/02 02:22:26;;;;;;;1.50;1.10;;;9.40;98.20;;;;;;4881206;29;20487;-83
2024/04/02 02:24:53;;;;;;;1.50;1.10;;;9.40;98.20;;;;;;4881661;29;20474;-84
2024/04/02 02:27:18;;;;;;;1.50;1.10;;;9.50;98.20;;;;;;4878886;29;20241;-83
2024/04/02 02:29:45;;;;;;;1.50;1.10;;;9.50;98.20;;;;;;4881248;29;20567;-83
2024/04/02 02:32:12;;;;;;;1.50;1.10;;;9.50;98.20;;;;;;4879779;29;20842;-83
2024/04/02 02:34:41;;;;;;;1.50;1.10;;;9.50;98.20;;;;;;4880405;29;20899;-82
2024/04/02 02:37:08;;;;;;;1.50;1.10;;;9.60;98.20;;;;;;4880477;29;20941;-83
2024/04/02 02:39:34;;;;;;;1.50;1.10;;;9.60;98.20;;;;;;4881697;29;20471;-82
2024/04/02 02:42:00;;;;;;;1.50;1.23;;;9.60;98.20;;;;;;4870581;29;20534;-82
2024/04/02 02:44:28;;;;;;;1.50;1.10;;;9.60;98.20;;;;;;4876225;29;20994;-82
2024/04/02 02:46:53;;;;;;;1.50;1.07;;;9.60;98.20;;;;;;4875042;29;20332;-81
2024/04/02 02:49:20;;;;;;;1.50;1.10;;;9.60;98.20;;;;;;4883618;29;20557;-82
2024/04/02 02:51:47;;;;;;;1.50;1.10;;;9.60;98.20;;;;;;4876317;29;20507;-83
2024/04/02 02:54:14;;;;;;;1.50;1.07;;;9.60;98.20;;;;;;4883680;29;20538;-83
2024/04/02 02:56:40;;;;;;;1.50;1.20;;;9.60;98.20;;;;;;4876825;29;21008;-82
2024/04/02 02:59:08;;;;;;;1.50;1.10;;;9.60;98.20;;;;;;4883652;29;20906;-83
2024/04/02 03:01:33;;;;;;;1.50;1.20;;;9.60;98.20;;;;;;4870408;29;20485;-83
2024/04/02 03:04:00;;;;;;;1.50;1.10;;;9.60;98.20;;;;;;4884870;29;20489;-82
2024/04/02 03:06:26;;;;;;;1.50;1.10;;;9.60;98.20;;;;;;4872671;29;20240;-83
2024/04/02 03:08:56;;;;;;;1.50;1.10;;;9.60;98.20;;;;;;4888168;29;20494;-83
2024/04/02 03:11:22;;;;;;;1.50;1.10;;;9.60;98.20;;;;;;4872820;29;20321;-83
2024/04/02 03:13:48;;;;;;;1.50;1.10;;;9.60;98.20;;;;;;4889423;29;20510;-84
2024/04/02 03:16:19;;;;;;;1.50;1.10;;;9.60;98.20;;;;;;4873075;29;20248;-80
2024/04/02 03:18:46;;;;;;;1.50;1.10;;;9.60;98.20;;;;;;4889494;29;20493;-83
2024/04/02 03:21:12;;;;;;;1.50;1.10;;;9.50;98.20;;;;;;4873940;29;20478;-82
2024/04/02 03:23:42;;;;;;;1.50;1.10;;;9.50;98.20;;;;;;4891156;29;20861;-82
2024/04/02 03:26:11;;;;;;;1.50;1.10;;;9.50;98.20;;;;;;4871809;29;20491;-82
2024/04/02 03:28:39;;;;;;;1.50;1.10;;;9.50;98.20;;;;;;4888519;29;20497;-80
2024/04/02 03:31:04;;;;;;;1.50;1.10;;;9.40;98.20;;;;;;4872168;29;20974;-84
2024/04/02 03:33:32;;;;;;;1.50;1.17;;;9.40;98.20;;;;;;4889967;29;20462;-80
2024/04/02 03:36:01;;;;;;;1.50;1.10;;;9.30;98.20;;;;;;4870505;29;20228;-81
2024/04/02 03:38:28;;;;;;;1.50;1.10;;;9.30;98.20;;;;;;4888143;29;20487;-80
2024/04/02 03:40:55;;;;;;;1.50;1.00;;;9.30;98.20;;;;;;4872013;29;20472;-81
2024/04/02 03:43:23;;;;;;;1.50;1.10;;;9.20;98.20;;;;;;4888810;29;20470;-81
2024/04/02 03:45:50;;;;;;;1.50;1.13;;;9.20;98.20;;;;;;4869649;29;20967;-80
2024/04/02 03:48:15;;;;;;;1.50;1.20;;;9.20;98.20;;;;;;4888289;29;20505;-81
2024/04/02 03:50:50;;;;;;;1.50;1.20;;;9.20;98.20;;;;;;4878282;29;20469;-82
2024/04/02 03:53:15;;;;;;;1.50;1.10;;;9.20;98.20;;;;;;4852654;29;20311;-82
2024/04/02 03:55:42;;;;;;;1.50;1.00;;;9.20;98.20;;;;;;4881590;29;20585;-81
2024/04/02 03:58:08;;;;;;;1.50;1.10;;;9.20;98.20;;;;;;4881392;29;20385;-81
2024/04/02 04:00:36;;;;;;;1.50;1.10;;;9.20;98.20;;;;;;4879411;29;20482;-80
2024/04/02 04:03:02;;;;;;;1.50;1.13;;;9.20;98.20;;;;;;4882393;29;20232;-81
2024/04/02 04:05:28;;;;;;;1.50;1.10;;;9.20;98.20;;;;;;4881085;29;21015;-81
2024/04/02 04:07:54;;;;;;;1.50;1.10;;;9.30;98.20;;;;;;4879615;29;20237;-80
2024/04/02 04:10:21;;;;;;;1.50;1.00;;;9.30;98.20;;;;;;4876851;29;20537;-80
2024/04/02 04:12:47;;;;;;;1.50;1.20;;;9.30;98.20;;;;;;4881265;29;20550;-81
2024/04/02 04:15:14;;;;;;;1.50;1.20;;;9.30;98.20;;;;;;4884518;29;20466;-82
2024/04/02 04:17:41;;;;;;;1.50;1.20;;;9.40;98.20;;;;;;4881306;29;20233;-83
2024/04/02 04:20:09;;;;;;;1.50;1.10;;;9.40;98.20;;;;;;4879119;29;21133;-81
2024/04/02 04:22:35;;;;;;;1.50;1.20;;;9.30;98.20;;;;;;4878823;29;20488;-82
2024/04/02 04:25:03;;;;;;;1.50;1.10;;;9.30;98.20;;;;;;4883656;29;20581;-81
2024/04/02 04:27:32;;;;;;;1.50;1.20;;;9.30;98.20;;;;;;4873510;29;20974;-81
2024/04/02 04:29:59;;;;;;;1.50;1.10;;;9.20;98.20;;;;;;4874534;29;20482;-81
2024/04/02 04:32:24;;;;;;;1.53;1.20;;;9.20;98.20;;;;;;4878924;29;21029;-82
2024/04/02 04:34:53;;;;;;;1.50;1.10;;;9.30;98.20;;;;;;4880496;29;20474;-81
2024/04/02 04:37:19;;;;;;;1.50;1.20;;;9.30;98.20;;;;;;4873746;29;20224;-81
2024/04/02 04:39:46;;;;;;;1.50;1.10;;;9.30;98.20;;;;;;4883699;29;21640;-82
2024/04/02 04:42:12;;;;;;;1.50;1.20;;;9.30;98.20;;;;;;4893073;23;20236;-82
2024/04/02 04:44:43;;;;;;;1.50;1.10;;;9.40;98.20;;;;;;4915042;29;21045;-82
2024/04/02 04:47:09;;;;;;;1.50;1.13;;;9.40;98.20;;;;;;4909540;29;20507;-84
2024/04/02 04:49:35;;;;;;;1.50;1.20;;;9.40;98.20;;;;;;4918213;29;20550;-85
2024/04/02 04:52:04;;;;;;;1.50;1.10;;;9.50;98.20;;;;;;4912931;29;20487;-84
2024/04/02 04:54:31;;;;;;;1.60;1.30;;;9.50;98.20;;;;;;4916068;29;20480;-84
2024/04/02 04:56:56;;;;;;;1.50;1.20;;;9.50;98.20;;;;;;4908434;29;20515;-85
2024/04/02 04:59:24;;;;;;;1.50;1.10;;;9.60;98.20;;;;;;4917218;29;20501;-84
2024/04/02 05:01:50;;;;;;;1.50;1.17;;;9.60;98.20;;;;;;4909337;29;20279;-84
2024/04/02 05:04:17;;;;;;;1.50;1.23;;;9.60;98.20;;;;;;4919647;29;20889;-85
2024/04/02 05:06:43;;;;;;;1.50;1.20;;;9.60;98.20;;;;;;4908493;29;20635;-84
2024/04/02 05:09:12;;;;;;;1.50;1.10;;;9.70;98.20;;;;;;4916208;29;20883;-85
2024/04/02 05:11:40;;;;;;;1.50;1.10;;;9.70;98.20;;;;;;4903311;29;20490;-84
2024/04/02 05:14:15;;;;;;;1.50;1.20;;;9.70;98.20;;;;;;4906738;29;20811;-84
2024/04/02 05:16:42;;;;;;;1.50;1.10;;;9.70;98.20;;;;;;4912504;29;21121;-85
2024/04/02 05:19:09;;;;;;;1.50;1.10;;;9.70;98.20;;;;;;4916456;29;20506;-84
2024/04/02 05:21:44;;;;;;;1.50;1.10;;;9.70;98.20;;;;;;4900665;29;20516;-83
2024/04/02 05:24:12;;;;;;;1.50;1.17;;;9.80;98.20;;;;;;4911509;29;20475;-84
2024/04/02 05:26:43;;;;;;;1.50;1.10;;;9.80;98.20;;;;;;4910669;29;20480;-82
2024/04/02 05:29:22;;;;;;;1.50;1.10;;;9.80;98.20;;;;;;4916952;29;20527;-83
2024/04/02 05:32:28;;;;;;;1.50;1.20;;;9.80;98.20;;;;;;4909057;29;20471;-84
2024/04/02 05:34:54;;;;;;;1.53;1.20;;;9.80;98.20;;;;;;4909957;29;20555;-83
2024/04/02 05:37:21;;;;;;;1.50;1.10;;;9.90;98.20;;;;;;4907473;29;21202;-83
2024/04/02 05:39:48;;;;;;;1.50;1.10;;;9.90;98.20;;;;;;4913792;29;20213;-83
2024/04/02 05:42:15;;;;;;;1.50;1.10;;;9.90;98.20;;;;;;4912575;29;20986;-83
2024/04/02 05:44:42;;;;;;;1.50;1.10;;;9.90;98.20;;;;;;4910906;29;20471;-83
2024/04/02 05:47:08;;;;;;;1.50;1.10;;;9.90;98.20;;;;;;4912377;29;20492;-83
2024/04/02 05:49:34;;;;;;;1.50;1.20;;;10.00;98.20;;;;;;4916674;29;20465;-83
2024/04/02 05:55:27;;;;;;;1.50;1.20;;;10.00;98.20;;;;;;4898765;29;20729;-82
2024/04/02 05:57:57;;;;;;;1.50;1.10;;;10.10;98.20;;;;;;4910915;29;20654;-84
2024/04/02 06:03:10;;;;;;;1.50;1.20;;;10.10;98.20;;;;;;4915276;29;21039;-87
2024/04/02 06:05:40;;;;;;;1.50;1.10;;;10.20;98.20;;;;;;4914000;29;20501;-83
2024/04/02 06:08:14;;;;;;;1.50;1.10;;;10.20;98.20;;;;;;4917796;29;20881;-85
2024/04/02 06:10:41;;;;;;;1.50;1.10;;;10.30;98.20;;;;;;4911490;29;20527;-83
2024/04/02 06:13:08;;;;;;;1.50;1.10;;;10.30;98.20;;;;;;4914159;29;20492;-86
2024/04/02 06:15:34;;;;;;;1.50;1.10;;;10.30;98.20;;;;;;4913953;29;20874;-84
2024/04/02 06:18:01;;;;;;;1.50;1.10;;;10.30;98.20;;;;;;4911427;29;20567;-85
2024/04/02 06:20:26;;;;;;;1.50;1.10;;;10.30;98.20;;;;;;4919901;29;20216;-85
2024/04/02 06:22:56;;;;;;;1.50;1.10;;;10.40;98.20;;;;;;4909433;29;21016;-85
2024/04/02 06:25:23;;;;;;;1.50;1.10;;;10.40;98.20;;;;;;4909922;29;20218;-84
2024/04/02 06:27:51;;;;;;;1.50;1.10;;;10.50;98.20;;;;;;4909085;29;20783;-86
2024/04/02 06:30:17;;;;;;;1.50;1.10;;;10.50;98.20;;;;;;4919331;29;20485;-85
2024/04/02 06:32:44;;;;;;;1.50;1.10;;;10.50;98.20;;;;;;4921707;29;21093;-83
2024/04/02 06:35:11;;;;;;;1.50;1.00;;;10.60;98.20;;;;;;4911901;29;20472;-84
2024/04/02 06:40:41;;;;;;;1.50;1.10;;;10.70;98.20;;;;;;4912855;29;20469;-84
2024/04/02 06:43:09;;;;;;;1.50;1.10;;;10.80;98.20;;;;;;4920395;29;20572;-85
2024/04/02 06:45:35;;;;;;;1.50;1.00;;;10.80;98.20;;;;;;4914125;29;20480;-84
2024/04/02 06:48:01;;;;;;;1.50;1.00;;;10.90;98.20;;;;;;4910270;29;20506;-84
2024/04/02 06:50:28;;;;;;;1.50;1.00;;;11.00;98.20;;;;;;4914428;29;20481;-83
2024/04/02 06:52:54;;;;;;;1.50;1.00;;;11.00;98.20;;;;;;4919568;29;20239;-85
2024/04/02 06:55:21;;;;;;;1.50;1.00;;;11.00;98.20;;;;;;4911741;29;20593;-85
2024/04/02 06:57:47;;;;;;;1.50;1.03;;;11.00;98.20;;;;;;4920327;29;20567;-84
2024/04/02 07:00:20;;;;;;;1.50;1.13;;;11.10;98.20;;;;;;4918269;29;20513;-85
2024/04/02 07:02:46;;;;;;;1.50;1.10;;;11.10;98.20;;;;;;4918952;29;20825;-83
2024/04/02 07:05:22;;;;;;;1.50;1.10;;;11.20;98.20;;;;;;4916613;29;20461;-85
2024/04/02 07:07:47;;;;;;;1.50;1.07;;;11.30;98.20;;;;;;4919230;29;20487;-85
2024/04/02 07:10:14;;;;;;;1.50;1.00;;;11.40;98.20;;;;;;4912313;29;20502;-86
2024/04/02 07:12:40;;;;;;;1.50;1.10;;;11.50;98.20;;;;;;4920001;29;20267;-86
2024/04/02 07:15:08;;;;;;;1.50;1.00;;;11.60;98.20;;;;;;4903957;29;20469;-83
2024/04/02 07:17:35;;;;;;;1.50;1.00;;;11.60;98.20;;;;;;4914100;29;20409;-85
2024/04/02 07:20:06;;;;;;;1.50;1.00;;;11.70;98.20;;;;;;4910656;29;20468;-84
2024/04/02 07:22:48;;;;;;;1.50;1.10;;;11.80;98.20;;;;;;4904489;29;20520;-83
2024/04/02 07:25:15;;;;;;;1.50;1.00;;;11.80;98.20;;;;;;4908356;29;20564;-83
2024/04/02 07:27:41;;;;;;;1.50;1.17;;;11.80;98.20;;;;;;4903724;29;20578;-82
2024/04/02 07:30:11;;;;;;;1.50;1.00;;;11.80;98.20;;;;;;4909919;29;20504;-81
2024/04/02 07:32:38;;;;;;;1.50;1.10;;;11.80;98.20;;;;;;4903159;29;20488;-82
2024/04/02 07:35:06;;;;;;;1.50;1.00;;;11.80;98.20;;;;;;4910090;29;20917;-83
2024/04/02 07:37:32;;;;;;;1.50;1.00;;;11.80;98.20;;;;;;4906548;29;20522;-82
2024/04/02 07:39:59;;;;;;;1.50;1.10;;;11.90;98.20;;;;;;4910438;29;20587;-81
2024/04/02 07:42:34;;;;;;;1.50;1.00;;;11.90;98.20;;;;;;4914201;29;20487;-82
2024/04/02 07:45:01;;;;;;;1.50;1.00;;;12.00;98.20;;;;;;4910555;29;20506;-82
2024/04/02 07:47:26;;;;;;;1.50;1.00;;;12.00;98.20;;;;;;4900007;29;21073;-82
2024/04/02 07:49:55;;;;;;;1.50;1.00;;;12.10;98.20;;;;;;4908261;29;20472;-81
2024/04/02 07:52:21;;;;;;;1.50;1.10;;;12.20;98.20;;;;;;4910669;29;20231;-81
2024/04/02 07:54:48;;;;;;;1.50;1.03;;;12.20;98.20;;;;;;4914724;29;20483;-81
2024/04/02 07:57:14;;;;;;;1.50;1.00;;;12.20;98.20;;;;;;4913444;29;20232;-81
2024/04/02 07:59:41;;;;;;;1.50;1.00;;;12.20;98.20;;;;;;4912038;29;20473;-81
2024/04/02 08:02:06;;;;;;;1.50;1.00;;;12.10;98.20;;;;;;4910170;29;20579;-81
2024/04/02 08:04:33;;;;;;;1.50;1.00;;;12.10;98.20;;;;;;4911138;29;20546;-82
2024/04/02 08:07:00;;;;;;;1.50;1.00;;;12.20;98.20;;;;;;4909188;29;20235;-82
2024/04/02 08:09:27;;;;;;;1.50;1.00;;;12.20;98.20;;;;;;4914773;29;20850;-82
2024/04/02 08:11:53;;;;;;;1.50;1.00;;;12.30;98.20;;;;;;4903396;29;20518;-82
2024/04/02 08:14:23;;;;;;;1.50;1.10;;;12.30;98.20;;;;;;4908944;29;21139;-83
2024/04/02 08:16:49;;;;;;;1.50;0.93;;;12.40;98.20;;;;;;4905981;29;20247;-81
2024/04/02 08:19:19;;;;;;;1.50;1.10;;;12.50;98.20;;;;;;4919620;29;20465;-81
2024/04/02 08:21:47;;;;;;;1.50;1.20;;;12.50;98.20;;;;;;4902145;29;20727;-81
2024/04/02 08:24:15;;;;;;;1.50;1.00;;;12.70;98.20;;;;;;4911990;29;20814;-81
2024/04/02 08:26:41;;;;;;;1.47;0.90;;;12.70;98.20;;;;;;4908488;29;20587;-81
2024/04/02 08:29:08;;;;;;;1.50;1.00;;;12.80;98.20;;;;;;4917554;29;20496;-81
2024/04/02 08:31:34;;;;;;;1.50;1.00;;;12.80;98.20;;;;;;4899283;29;20515;-81
2024/04/02 08:34:01;;;;;;;1.50;1.00;;;12.90;98.20;;;;;;4910880;29;20524;-83
2024/04/02 08:36:27;;;;;;;1.50;1.10;;;13.00;98.20;;;;;;4901123;29;20235;-82
2024/04/02 08:38:54;;;;;;;1.50;1.00;;;13.10;98.20;;;;;;4916707;29;20476;-82
2024/04/02 08:41:24;;;;;;;1.50;1.10;;;13.20;98.20;;;;;;4897381;29;20328;-80
2024/04/02 08:44:01;;;;;;;1.50;1.00;;;13.30;98.20;;;;;;4904732;29;21169;-84
2024/04/02 08:46:28;;;;;;;1.50;1.00;;;13.30;98.20;;;;;;4900397;29;20486;-84
2024/04/02 08:48:57;;;;;;;1.50;1.00;;;13.30;98.20;;;;;;4917296;29;20500;-82
2024/04/02 08:51:23;;;;;;;1.50;1.00;;;13.30;98.20;;;;;;4903921;29;20488;-81
2024/04/02 08:53:59;;;;;;;1.50;1.10;;;13.40;98.20;;;;;;4914956;29;20553;-81
2024/04/02 08:56:26;;;;;;;1.50;1.00;;;13.40;98.20;;;;;;4906550;29;20223;-82
2024/04/02 08:58:55;;;;;;;1.50;1.00;;;13.40;98.20;;;;;;4916628;29;20473;-81
2024/04/02 09:01:21;;;;;;;1.50;0.90;;;13.50;98.20;;;;;;4896260;29;20512;-81
2024/04/02 09:03:47;;;;;;;1.50;1.00;;;13.60;98.20;;;;;;4911531;29;20552;-80
2024/04/02 09:06:13;;;;;;;1.50;1.00;;;13.80;98.20;;;;;;4900579;29;20761;-81
2024/04/02 09:08:44;;;;;;;1.50;0.93;;;13.90;98.20;;;;;;4919966;29;20580;-82
2024/04/02 09:11:10;;;;;;;1.47;1.00;;;14.00;98.20;;;;;;4897727;29;20482;-83
2024/04/02 09:13:42;;;;;;;1.90;1.63;;;14.00;98.20;;;;;;4922621;29;20485;-83
2024/04/02 09:16:11;;;;;;;1.50;1.00;;;14.10;98.20;;;;;;4906869;29;20546;-83
2024/04/02 09:18:42;;;;;;;1.50;1.00;;;14.10;98.20;;;;;;4942350;29;20441;-83
2024/04/02 09:21:12;;;;;;;1.50;1.00;;;14.10;98.20;;;;;;4905615;29;21071;-82
2024/04/02 09:23:39;;;;;;;1.50;1.00;;;14.20;98.20;;;;;;4915721;29;20559;-83
2024/04/02 09:26:08;;;;;;;1.50;1.00;;;14.10;98.20;;;;;;4902014;29;20495;-83
2024/04/02 09:28:39;;;;;;;1.50;1.00;;;14.10;98.20;;;;;;4913444;29;20563;-80
2024/04/02 09:31:05;;;;;;;1.43;1.00;;;14.10;98.20;;;;;;4904151;29;20477;-80
2024/04/02 09:33:34;;;;;;;1.47;0.93;;;14.10;98.20;;;;;;4917501;29;20506;-81
2024/04/02 09:36:05;;;;;;;1.50;1.00;;;14.00;98.20;;;;;;4903349;29;20480;-82
2024/04/02 09:38:34;;;;;;;1.40;0.90;;;14.00;98.20;;;;;;4923979;29;20481;-81
2024/04/02 09:41:01;;;;;;;1.47;0.97;;;14.00;98.20;;;;;;4898402;29;21039;-80
2024/04/02 09:43:30;;;;;;;1.47;0.90;;;14.00;98.20;;;;;;4915243;29;20492;-81
2024/04/02 09:45:59;;;;;;;1.50;1.00;;;14.00;98.20;;;;;;4895878;29;20882;-82
2024/04/02 09:48:30;;;;;;;1.43;0.90;;;14.00;98.20;;;;;;4915065;29;21279;-83
2024/04/02 09:50:56;;;;;;;1.50;0.90;;;14.00;98.20;;;;;;4899716;29;20496;-82
2024/04/02 09:53:24;;;;;;;1.50;0.90;;;14.00;98.20;;;;;;4910278;29;20583;-82
2024/04/02 09:55:52;;;;;;;1.47;1.00;;;14.00;98.20;;;;;;4897249;29;20477;-82
2024/04/02 09:58:20;;;;;;;1.47;1.00;;;14.10;98.20;;;;;;4909346;29;20473;-82
2024/04/02 10:00:53;;;;;;;1.50;1.00;;;14.10;98.20;;;;;;4898762;29;20476;-82
2024/04/02 10:03:25;;;;;;;1.47;1.00;;;14.20;98.20;;;;;;4908573;29;20502;-83
2024/04/02 10:05:51;;;;;;;1.50;1.00;;;14.30;98.20;;;;;;4899288;29;20824;-83
2024/04/02 10:08:24;;;;;;;1.40;1.00;;;14.30;98.20;;;;;;4919418;29;20493;-85
2024/04/02 10:10:55;;;;;;;1.50;1.00;;;14.30;98.20;;;;;;4902238;29;20587;-84
2024/04/02 10:13:34;;;;;;;1.50;1.00;;;14.20;98.20;;;;;;4911566;29;20983;-84
2024/04/02 10:16:00;;;;;;;1.50;0.90;;;14.30;98.20;;;;;;4896977;29;20574;-83
2024/04/02 10:18:31;;;;;;;1.40;1.00;;;14.30;98.20;;;;;;4912045;29;20477;-85
2024/04/02 10:20:58;;;;;;;1.47;0.90;;;14.30;98.20;;;;;;4899122;29;20952;-85
2024/04/02 10:23:29;;;;;;;1.50;1.00;;;14.40;98.20;;;;;;4910807;29;20499;-83
2024/04/02 10:25:56;;;;;;;1.50;1.00;;;14.50;98.20;;;;;;4894418;29;20468;-84
2024/04/02 10:28:26;;;;;;;1.50;1.00;;;14.50;98.20;;;;;;4914344;29;20519;-83
2024/04/02 10:30:52;;;;;;;1.50;0.90;;;14.60;98.20;;;;;;4902539;29;20472;-83
2024/04/02 10:33:20;;;;;;;1.50;1.00;;;14.80;98.20;;;;;;4909738;29;20491;-84
2024/04/02 10:35:48;;;;;;;1.47;1.00;;;14.90;98.20;;;;;;4902963;29;20461;-84
2024/04/02 10:38:18;;;;;;;1.50;1.00;;;15.00;98.20;;;;;;4913888;29;20476;-85
2024/04/02 10:40:46;;;;;;;1.50;0.90;;;15.20;98.20;;;;;;4912835;29;20897;-80
2024/04/02 10:43:13;;;;;;;1.47;1.00;;;15.20;98.20;;;;;;4901617;29;20484;-83
2024/04/02 10:45:39;;;;;;;1.43;0.90;;;15.30;98.20;;;;;;4907095;29;20476;-83
2024/04/02 10:48:07;;;;;;;1.50;1.00;;;15.30;98.20;;;;;;4905625;29;20983;-84
2024/04/02 10:50:33;;;;;;;1.50;1.00;;;15.50;98.20;;;;;;4904022;29;20572;-83
2024/04/02 10:53:01;;;;;;;1.50;0.90;;;15.70;98.20;;;;;;4901288;29;20548;-82
2024/04/02 10:55:27;;;;;;;1.50;1.00;;;15.80;98.20;;;;;;4910142;29;20241;-82
2024/04/02 10:57:54;;;;;;;1.47;0.90;;;15.90;98.20;;;;;;4901929;29;20468;-82
2024/04/02 11:00:20;;;;;;;1.50;0.90;;;16.00;98.20;;;;;;4906698;29;20292;-82
2024/04/02 11:02:47;;;;;;;1.50;0.90;;;16.00;98.20;;;;;;4902223;29;20500;-82
2024/04/02 11:05:14;;;;;;;1.47;0.90;;;15.90;97.80;;;;;;4908769;29;20216;-82
2024/04/02 11:07:43;;;;;;;1.50;0.90;;;15.80;97.60;;;;;;4913489;29;20972;-82
2024/04/02 11:10:11;;;;;;;1.47;0.90;;;15.70;97.80;;;;;;4909532;29;20469;-84
2024/04/02 11:12:38;;;;;;;1.50;0.90;;;15.60;98.00;;;;;;4900686;29;20849;-82
2024/04/02 11:15:07;;;;;;;1.50;1.00;;;15.40;98.20;;;;;;4910936;29;20479;-82
2024/04/02 11:17:35;;;;;;;1.50;1.00;;;15.30;98.20;;;;;;4908322;29;20551;-83
2024/04/02 11:20:01;;;;;;;1.50;1.00;;;15.10;98.20;;;;;;4914732;29;20469;-81
2024/04/02 11:25:53;;;;;;;1.50;1.00;;;14.70;98.20;;;;;;4878533;29;20472;-83
2024/04/02 11:28:19;;;;;;;1.50;1.00;;;14.40;98.20;;;;;;4913893;29;20575;-82
2024/04/02 11:30:46;;;;;;;1.50;1.00;;;14.30;98.20;;;;;;4905212;29;20488;-83
2024/04/02 11:33:12;;;;;;;1.50;1.00;;;14.20;98.20;;;;;;4918417;29;20511;-83
2024/04/02 11:35:39;;;;;;;1.50;1.00;;;14.00;98.20;;;;;;4908160;29;20576;-82
2024/04/02 11:38:12;;;;;;;1.50;1.00;;;13.80;98.20;;;;;;4917651;29;20230;-83
2024/04/02 11:40:39;;;;;;;1.50;1.00;;;13.70;98.20;;;;;;4908633;29;20499;-84
2024/04/02 11:43:07;;;;;;;1.50;1.00;;;13.60;98.20;;;;;;4902974;29;20499;-83
2024/04/02 11:45:34;;;;;;;1.50;1.00;;;13.50;98.20;;;;;;4901166;29;20969;-83
2024/04/02 11:48:01;;;;;;;1.50;1.00;;;13.50;98.20;;;;;;4907569;29;20493;-84
2024/04/02 11:50:53;;;;;;;1.50;0.93;;;13.50;98.20;;;;;;4905695;29;20504;-84
2024/04/02 11:53:22;;;;;;;1.50;1.00;;;13.50;98.20;;;;;;5010767;23;3853648;-86
2024/04/02 11:55:52;;;;;;;1.50;0.97;;;13.60;98.20;;;;;;4873337;29;20223;-84
2024/04/02 12:01:07;;;;;;;1.43;1.00;;;13.60;98.20;;;;;;4861504;29;20481;-84
2024/04/02 12:03:40;;;;;;;1.47;0.90;;;13.60;98.20;;;;;;4872201;29;20482;-84
2024/04/02 12:06:10;;;;;;;1.50;1.00;;;13.70;98.20;;;;;;4869389;29;20514;-82
2024/04/02 12:08:44;;;;;;;1.50;1.00;;;13.80;98.20;;;;;;4891589;29;21001;-85
2024/04/02 12:11:11;;;;;;;1.50;1.10;;;13.90;98.20;;;;;;4885525;29;20528;-86
2024/04/02 12:13:39;;;;;;;1.50;1.00;;;14.00;98.20;;;;;;4896062;29;20512;-86
2024/04/02 12:16:08;;;;;;;1.43;0.90;;;14.00;98.20;;;;;;4872951;29;20467;-84
2024/04/02 12:18:36;;;;;;;1.50;1.03;;;14.00;98.20;;;;;;4887087;29;20471;-84
2024/04/02 12:21:10;;;;;;;1.50;0.97;;;13.90;98.20;;;;;;4865301;29;20506;-83
2024/04/02 12:23:36;;;;;;;1.50;1.00;;;13.70;98.20;;;;;;4982868;23;20544;-83
2024/04/02 12:26:03;;;;;;;1.50;1.00;;;13.40;98.20;;;;;;4906033;29;21087;-81
2024/04/02 12:28:30;;;;;;;1.50;1.00;;;13.20;98.20;;;;;;4924171;29;20233;-83
2024/04/02 12:31:01;;;;;;;1.50;1.10;;;13.10;98.20;;;;;;4912351;29;20466;-83
2024/04/02 12:33:32;;;;;;;1.50;1.00;;;13.00;98.20;;;;;;4930230;29;20488;-85
2024/04/02 12:35:59;;;;;;;1.43;1.00;;;12.90;98.20;;;;;;4915778;29;20471;-83
2024/04/02 12:38:30;;;;;;;1.50;0.97;;;12.90;98.20;;;;;;4931982;29;20968;-84
2024/04/02 12:40:57;;;;;;;1.50;1.00;;;12.90;98.20;;;;;;4913084;29;20987;-84
2024/04/02 12:43:43;;;;;;;1.50;0.90;;;13.00;98.20;;;;;;4929529;29;20493;-85
2024/04/02 12:46:14;;;;;;;1.50;1.10;;;13.10;98.20;;;;;;4902576;29;20502;-84
2024/04/02 12:48:50;;;;;;;1.50;1.00;;;13.20;98.20;;;;;;4935693;29;20509;-85
2024/04/02 12:54:22;;;;;;;1.47;0.90;;;13.40;98.20;;;;;;4922473;29;20489;-85
2024/04/02 12:57:02;;;;;;;1.47;0.93;;;13.50;98.20;;;;;;4919196;29;20496;-84
2024/04/02 12:59:30;;;;;;;1.50;0.90;;;13.60;98.20;;;;;;4920573;29;20469;-82
2024/04/02 13:02:02;;;;;;;1.43;0.90;;;13.60;98.20;;;;;;4916898;29;20518;-86
2024/04/02 13:04:30;;;;;;;1.47;0.93;;;13.60;98.20;;;;;;4922514;29;20472;-83
2024/04/02 13:06:56;;;;;;;1.50;1.00;;;13.60;98.20;;;;;;4913560;29;20934;-84
2024/04/02 13:09:27;;;;;;;1.47;1.00;;;13.60;98.20;;;;;;4924814;29;20579;-82
2024/04/02 13:11:53;;;;;;;1.50;1.10;;;13.70;98.20;;;;;;4910659;29;20291;-83